createdAt,value
2023-03-08T00:01:17.705Z,0.50
2023-03-08T00:03:45.461Z,0.40
2023-03-08T00:06:16.794Z,1.13
2023-03-08T00:08:44.129Z,0.50
2023-03-08T00:11:12.883Z,1.77
2023-03-08T00:13:40.340Z,3.97
2023-03-08T00:16:13.743Z,4.55
2023-03-08T00:18:41.767Z,4.20
2023-03-08T00:21:13.402Z,3.80
2023-03-08T00:23:41.459Z,3.80
2023-03-08T00:26:09.805Z,4.07
2023-03-08T00:28:36.816Z,3.03
2023-03-08T00:31:10.696Z,3.45
2023-03-08T00:33:38.003Z,3.67
2023-03-08T00:36:06.885Z,2.88
2023-03-08T00:38:36.571Z,3.30
2023-03-08T00:41:04.478Z,3.40
2023-03-08T00:43:31.892Z,3.50
2023-03-08T00:45:59.380Z,2.63
2023-03-08T00:48:26.719Z,3.25
2023-03-08T00:50:54.107Z,3.13
2023-03-08T00:53:21.495Z,4.72
2023-03-08T00:55:57.499Z,3.65
2023-03-08T00:58:27.407Z,3.78
2023-03-08T01:00:54.946Z,4.53
2023-03-08T01:03:22.236Z,3.53
2023-03-08T01:05:53.191Z,3.42
2023-03-08T01:08:22.451Z,4.55
2023-03-08T01:11:00.486Z,3.92
2023-03-08T01:13:32.924Z,3.72
2023-03-08T01:16:00.783Z,3.25
2023-03-08T01:18:28.708Z,3.25
2023-03-08T01:21:02.437Z,3.88
2023-03-08T01:23:29.902Z,3.53
2023-03-08T01:26:07.300Z,3.45
2023-03-08T01:28:35.395Z,4.50
2023-03-08T01:31:06.400Z,3.70
2023-03-08T01:33:35.327Z,2.60
2023-03-08T01:36:12.166Z,3.40
2023-03-08T01:38:39.330Z,3.17
2023-03-08T01:41:08.957Z,3.95
2023-03-08T01:43:40.246Z,3.10
2023-03-08T01:46:23.216Z,4.43
2023-03-08T01:49:16.445Z,3.25
2023-03-08T01:51:58.653Z,2.88
2023-03-08T01:54:51.753Z,3.53
2023-03-08T01:57:36.063Z,2.88
2023-03-08T02:00:10.198Z,3.28
2023-03-08T02:02:43.776Z,3.90
2023-03-08T02:05:11.755Z,3.42
2023-03-08T02:07:38.748Z,3.20
2023-03-08T02:10:06.661Z,3.00
2023-03-08T02:12:34.966Z,2.80
2023-03-08T02:15:06.261Z,2.72
2023-03-08T02:17:37.935Z,7.88
2023-03-08T02:20:24.651Z,3.38
2023-03-08T02:22:53.309Z,3.47
2023-03-08T02:25:26.748Z,3.80
2023-03-08T02:27:54.925Z,3.72
2023-03-08T02:30:30.692Z,3.85
2023-03-08T02:32:57.678Z,3.15
2023-03-08T02:35:24.995Z,3.88
2023-03-08T02:37:52.151Z,3.30
2023-03-08T02:40:19.396Z,4.10
2023-03-08T02:42:46.390Z,2.90
2023-03-08T02:45:13.538Z,3.08
2023-03-08T02:47:40.596Z,3.78
2023-03-08T02:50:08.741Z,3.08
2023-03-08T02:52:35.803Z,3.17
2023-03-08T02:55:02.912Z,3.03
2023-03-08T02:57:29.953Z,3.30
2023-03-08T02:59:57.053Z,3.42
2023-03-08T03:02:24.069Z,4.07
2023-03-08T03:04:51.065Z,3.22
2023-03-08T03:07:18.145Z,4.18
2023-03-08T03:09:45.123Z,3.03
2023-03-08T03:12:12.117Z,4.35
2023-03-08T03:14:39.162Z,2.72
2023-03-08T03:17:06.228Z,2.97
2023-03-08T03:19:33.276Z,4.45
2023-03-08T03:22:00.428Z,3.55
2023-03-08T03:24:27.455Z,3.72
2023-03-08T03:26:54.561Z,1.63
2023-03-08T03:29:21.979Z,3.35
2023-03-08T03:31:49.058Z,3.50
2023-03-08T03:34:16.189Z,3.55
2023-03-08T03:36:43.244Z,3.75
2023-03-08T03:39:10.303Z,2.55
2023-03-08T03:41:37.362Z,3.08
2023-03-08T03:44:04.828Z,2.83
2023-03-08T03:46:31.917Z,1.88
2023-03-08T03:48:59.218Z,2.53
2023-03-08T03:51:26.369Z,1.80
2023-03-08T03:53:53.402Z,2.65
2023-03-08T03:56:23.326Z,2.95
2023-03-08T03:58:51.648Z,3.60
2023-03-08T04:01:21.643Z,2.58
2023-03-08T04:03:49.494Z,3.47
2023-03-08T04:06:26.591Z,2.78
2023-03-08T04:08:56.791Z,2.50
2023-03-08T04:11:27.990Z,3.08
2023-03-08T04:13:55.939Z,2.90
2023-03-08T04:16:29.230Z,3.42
2023-03-08T04:18:59.781Z,2.92
2023-03-08T04:21:27.718Z,3.33
2023-03-08T04:23:55.984Z,3.13
2023-03-08T04:26:24.145Z,0.30
2023-03-08T04:28:51.472Z,0.30
2023-03-08T04:31:21.314Z,0.30
2023-03-08T04:33:48.949Z,0.30
2023-03-08T04:36:17.442Z,0.20
2023-03-08T04:38:45.783Z,0.30
2023-03-08T04:41:13.541Z,0.30
2023-03-08T04:43:47.676Z,1.15
2023-03-08T04:46:16.343Z,0.30
2023-03-08T04:48:43.682Z,0.30
2023-03-08T04:51:13.180Z,0.20
2023-03-08T04:53:41.772Z,0.20
2023-03-08T04:56:09.476Z,0.63
2023-03-08T04:58:37.847Z,2.90
2023-03-08T05:01:18.001Z,1.75
2023-03-08T05:03:46.221Z,0.40
2023-03-08T05:06:16.767Z,0.30
2023-03-08T05:08:44.322Z,0.30
2023-03-08T05:11:18.260Z,0.20
2023-03-08T05:13:45.424Z,0.20
2023-03-08T05:16:12.962Z,0.20
2023-03-08T05:18:40.085Z,2.70
2023-03-08T05:21:13.257Z,3.15
2023-03-08T05:23:40.330Z,3.05
2023-03-08T05:26:09.067Z,3.03
2023-03-08T05:28:39.359Z,3.53
2023-03-08T05:31:19.010Z,3.05
2023-03-08T05:33:51.125Z,3.47
2023-03-08T05:36:19.338Z,2.22
2023-03-08T05:38:46.632Z,2.70
2023-03-08T05:41:16.779Z,3.20
2023-03-08T05:43:44.187Z,3.58
2023-03-08T05:46:17.736Z,2.85
2023-03-08T05:48:45.330Z,2.13
2023-03-08T05:51:15.777Z,3.13
2023-03-08T05:53:43.517Z,2.00
2023-03-08T05:56:14.790Z,2.58
2023-03-08T05:58:43.673Z,2.67
2023-03-08T06:01:21.646Z,2.53
2023-03-08T06:03:52.378Z,2.75
2023-03-08T06:06:24.858Z,2.33
2023-03-08T06:08:52.478Z,2.78
2023-03-08T06:11:20.225Z,3.63
2023-03-08T06:13:47.353Z,2.60
2023-03-08T06:16:15.091Z,0.63
2023-03-08T06:18:42.993Z,2.33
2023-03-08T06:21:15.884Z,2.30
2023-03-08T06:23:43.628Z,0.20
2023-03-08T06:26:11.860Z,0.47
2023-03-08T06:28:43.252Z,1.98
2023-03-08T06:31:16.727Z,2.40
2023-03-08T06:33:44.067Z,2.35
2023-03-08T06:36:20.380Z,3.30
2023-03-08T06:38:48.761Z,2.17
2023-03-08T06:41:18.848Z,0.30
2023-03-08T06:43:46.201Z,0.30
2023-03-08T06:46:19.249Z,0.30
2023-03-08T06:48:49.696Z,1.65
2023-03-08T06:51:17.629Z,0.30
2023-03-08T06:53:45.487Z,0.30
2023-03-08T06:56:15.866Z,0.20
2023-03-08T06:58:43.809Z,0.30
2023-03-08T07:01:11.505Z,0.30
2023-03-08T07:03:38.667Z,0.60
2023-03-08T07:06:09.089Z,3.40
2023-03-08T07:08:37.840Z,3.83
2023-03-08T07:11:07.502Z,2.60
2023-03-08T07:13:35.241Z,3.83
2023-03-08T07:16:11.041Z,2.25
2023-03-08T07:18:38.755Z,2.45
2023-03-08T07:21:06.393Z,2.42
2023-03-08T07:23:33.727Z,2.50
2023-03-08T07:26:04.882Z,2.40
2023-03-08T07:28:31.974Z,2.90
2023-03-08T07:30:59.113Z,2.33
2023-03-08T07:33:26.407Z,2.35
2023-03-08T07:35:53.797Z,2.88
2023-03-08T07:38:21.090Z,2.80
2023-03-08T07:40:56.203Z,2.67
2023-03-08T07:43:24.208Z,2.70
2023-03-08T07:45:51.258Z,2.10
2023-03-08T07:48:18.390Z,0.30
2023-03-08T07:50:45.449Z,0.20
2023-03-08T07:53:12.491Z,0.38
2023-03-08T07:55:39.498Z,0.30
2023-03-08T07:58:06.775Z,0.30
2023-03-08T08:00:33.788Z,0.30
2023-03-08T08:03:00.882Z,0.20
2023-03-08T08:05:27.906Z,0.30
2023-03-08T08:07:55.915Z,0.32
2023-03-08T08:10:25.875Z,0.30
2023-03-08T08:12:52.834Z,0.35
2023-03-08T08:15:19.851Z,0.30
2023-03-08T08:17:47.143Z,0.25
2023-03-08T08:20:14.792Z,0.30
2023-03-08T08:22:48.291Z,0.30
2023-03-08T08:25:15.360Z,0.30
2023-03-08T08:27:42.352Z,0.22
2023-03-08T08:30:11.449Z,0.30
2023-03-08T08:32:38.739Z,0.30
2023-03-08T08:35:08.631Z,0.30
2023-03-08T08:37:37.430Z,0.40
2023-03-08T08:40:08.054Z,0.43
2023-03-08T08:42:35.208Z,0.52
2023-03-08T08:45:02.209Z,1.48
2023-03-08T08:47:30.153Z,0.30
2023-03-08T08:49:57.225Z,0.40
2023-03-08T08:52:24.352Z,0.50
2023-03-08T08:54:53.330Z,0.28
2023-03-08T08:57:20.312Z,0.35
2023-03-08T08:59:47.891Z,0.50
2023-03-08T09:02:15.160Z,0.70
2023-03-08T09:04:42.776Z,0.90
2023-03-08T09:07:09.815Z,1.90
2023-03-08T09:09:36.795Z,2.70
2023-03-08T09:12:04.264Z,2.67
2023-03-08T09:14:31.196Z,3.22
2023-03-08T09:16:58.289Z,2.70
2023-03-08T09:19:25.416Z,2.80
2023-03-08T09:21:52.504Z,2.45
2023-03-08T09:24:19.523Z,2.85
2023-03-08T09:26:46.934Z,2.63
2023-03-08T09:29:13.926Z,2.92
2023-03-08T09:31:42.702Z,3.58
2023-03-08T09:34:11.733Z,2.55
2023-03-08T09:36:39.919Z,2.67
2023-03-08T09:39:09.577Z,2.63
2023-03-08T09:41:49.901Z,3.55
2023-03-08T09:44:55.871Z,4.80
2023-03-08T09:48:08.493Z,3.00
2023-03-08T09:50:52.856Z,4.35
2023-03-08T09:53:32.898Z,2.80
2023-03-08T09:56:20.405Z,2.65
2023-03-08T09:59:33.563Z,3.05
2023-03-08T10:02:21.152Z,2.33
2023-03-08T10:05:18.820Z,3.10
2023-03-08T10:08:01.563Z,2.92
2023-03-08T10:10:39.126Z,4.75
2023-03-08T10:14:09.158Z,2.45
2023-03-08T10:16:44.693Z,2.63
2023-03-08T10:19:39.016Z,2.30
2023-03-08T10:22:25.392Z,2.03
2023-03-08T10:25:24.177Z,2.10
2023-03-08T10:27:56.317Z,3.17
2023-03-08T10:30:37.504Z,2.70
2023-03-08T10:33:11.734Z,2.65
2023-03-08T10:35:53.135Z,5.25
2023-03-08T10:38:20.246Z,3.55
2023-03-08T10:40:47.280Z,2.88
2023-03-08T10:43:38.455Z,2.22
2023-03-08T10:46:22.054Z,2.55
2023-03-08T10:48:49.801Z,3.50
2023-03-08T10:51:24.397Z,2.47
2023-03-08T10:53:59.716Z,1.90
2023-03-08T10:56:40.284Z,2.20
2023-03-08T10:59:19.735Z,2.65
2023-03-08T11:01:55.004Z,0.35
2023-03-08T11:04:25.191Z,1.90
2023-03-08T11:06:52.522Z,0.20
2023-03-08T11:09:31.882Z,0.13
2023-03-08T11:12:00.555Z,0.40
2023-03-08T11:14:30.150Z,0.20
2023-03-08T11:17:23.999Z,0.10
2023-03-08T11:20:20.228Z,0.20
2023-03-08T11:23:21.860Z,1.35
2023-03-08T11:26:16.735Z,0.20
2023-03-08T11:29:05.896Z,0.20
2023-03-08T11:31:46.122Z,1.25
2023-03-08T11:34:41.848Z,0.20
2023-03-08T11:37:29.976Z,0.75
2023-03-08T11:40:22.290Z,3.00
2023-03-08T11:43:22.998Z,3.05
2023-03-08T11:45:52.765Z,2.10
2023-03-08T11:48:47.511Z,0.40
2023-03-08T11:51:22.601Z,2.10
2023-03-08T11:54:19.678Z,0.55
2023-03-08T11:57:09.718Z,1.90
2023-03-08T11:59:56.926Z,1.88
2023-03-08T12:02:30.133Z,2.15
2023-03-08T12:05:20.737Z,2.85
2023-03-08T12:08:26.443Z,7.32
2023-03-08T12:11:05.674Z,0.57
2023-03-08T12:13:39.281Z,2.00
2023-03-08T12:16:43.645Z,3.35
2023-03-08T12:19:13.879Z,3.33
2023-03-08T12:22:25.682Z,4.68
2023-03-08T12:25:16.400Z,2.28
2023-03-08T12:28:20.978Z,2.88
2023-03-08T12:31:27.430Z,2.90
2023-03-08T12:33:58.399Z,3.95
2023-03-08T12:36:41.597Z,3.17
2023-03-08T12:39:27.249Z,3.53
2023-03-08T12:42:10.122Z,4.28
2023-03-08T12:44:39.142Z,3.80
2023-03-08T12:47:12.308Z,2.55
2023-03-08T12:49:53.735Z,4.60
2023-03-08T12:52:20.694Z,2.55
2023-03-08T12:55:02.806Z,3.13
2023-03-08T12:57:42.991Z,2.90
2023-03-08T13:00:36.327Z,3.30
2023-03-08T13:03:12.473Z,2.65
2023-03-08T13:05:45.351Z,2.88
2023-03-08T13:08:16.345Z,3.10
2023-03-08T13:10:52.080Z,3.53
2023-03-08T13:13:43.688Z,3.42
2023-03-08T13:16:38.494Z,2.90
2023-03-08T13:19:14.985Z,3.03
2023-03-08T13:22:09.028Z,3.17
2023-03-08T13:24:41.825Z,2.28
2023-03-08T13:27:30.354Z,2.22
2023-03-08T13:30:14.473Z,2.30
2023-03-08T13:32:41.704Z,2.65
2023-03-08T13:35:16.536Z,3.08
2023-03-08T13:37:43.835Z,2.83
2023-03-08T13:40:22.263Z,1.90
2023-03-08T13:43:05.626Z,1.90
2023-03-08T13:45:32.706Z,2.05
2023-03-08T13:48:03.870Z,4.00
2023-03-08T13:50:35.895Z,2.67
2023-03-08T13:53:09.553Z,2.72
2023-03-08T13:55:43.030Z,2.40
2023-03-08T13:58:42.309Z,2.03
2023-03-08T14:01:19.670Z,0.60
2023-03-08T14:03:47.391Z,0.60
2023-03-08T14:06:33.722Z,0.40
2023-03-08T14:09:03.877Z,0.40
2023-03-08T14:11:38.199Z,0.30
2023-03-08T14:14:19.206Z,0.40
2023-03-08T14:16:47.414Z,0.70
2023-03-08T14:19:36.177Z,0.32
2023-03-08T14:22:38.090Z,0.50
2023-03-08T14:25:06.298Z,0.20
2023-03-08T14:27:38.387Z,0.30
2023-03-08T14:30:24.782Z,0.50
2023-03-08T14:33:19.300Z,0.55
2023-03-08T14:35:57.789Z,0.30
2023-03-08T14:38:29.679Z,0.30
2023-03-08T14:41:03.896Z,0.40
2023-03-08T14:43:31.058Z,0.32
2023-03-08T14:46:09.402Z,0.93
2023-03-08T14:48:38.527Z,0.40
2023-03-08T14:51:42.480Z,0.38
2023-03-08T14:54:36.675Z,0.60
2023-03-08T14:57:23.312Z,0.70
2023-03-08T14:59:50.748Z,0.60
2023-03-08T15:02:18.377Z,1.13
2023-03-08T15:04:46.545Z,0.50
2023-03-08T15:07:35.448Z,1.17
2023-03-08T15:10:06.023Z,0.73
2023-03-08T15:12:33.296Z,0.30
2023-03-08T15:15:00.532Z,1.65
2023-03-08T15:17:27.981Z,0.30
2023-03-08T15:19:56.172Z,3.70
2023-03-08T15:22:24.120Z,1.20
2023-03-08T15:24:52.071Z,2.47
2023-03-08T15:27:19.644Z,1.25
2023-03-08T15:29:46.735Z,3.22
2023-03-08T15:32:14.033Z,1.50
2023-03-08T15:34:50.492Z,0.60
2023-03-08T15:37:17.689Z,1.20
2023-03-08T15:39:45.707Z,1.00
2023-03-08T15:42:16.535Z,1.35
2023-03-08T15:44:44.623Z,3.85
2023-03-08T15:47:12.018Z,1.63
2023-03-08T15:49:39.321Z,2.13
2023-03-08T15:52:08.580Z,1.40
2023-03-08T15:54:36.377Z,2.13
2023-03-08T15:57:04.116Z,1.48
2023-03-08T15:59:31.868Z,0.60
2023-03-08T16:01:59.491Z,1.40
2023-03-08T16:04:27.456Z,0.50
2023-03-08T16:06:55.333Z,1.55
2023-03-08T16:09:24.578Z,0.70
2023-03-08T16:11:52.489Z,1.15
2023-03-08T16:14:19.733Z,0.70
2023-03-08T16:16:47.164Z,1.40
2023-03-08T16:19:14.494Z,1.13
2023-03-08T16:21:42.124Z,1.55
2023-03-08T16:24:11.179Z,2.60
2023-03-08T16:26:41.851Z,1.10
2023-03-08T16:29:09.982Z,1.25
2023-03-08T16:31:37.331Z,1.60
2023-03-08T16:34:06.605Z,2.13
2023-03-08T16:36:34.103Z,1.08
2023-03-08T16:39:01.643Z,1.80
2023-03-08T16:41:30.298Z,1.13
2023-03-08T16:43:59.740Z,1.48
2023-03-08T16:46:26.961Z,1.13
2023-03-08T16:48:56.315Z,1.58
2023-03-08T16:51:27.264Z,1.65
2023-03-08T16:53:56.945Z,1.52
2023-03-08T16:56:29.699Z,1.10
2023-03-08T16:59:02.235Z,1.08
2023-03-08T17:01:31.509Z,0.80
2023-03-08T17:03:59.725Z,1.27
2023-03-08T17:06:30.719Z,2.70
2023-03-08T17:08:59.990Z,1.60
2023-03-08T17:11:31.650Z,0.50
2023-03-08T17:14:04.512Z,1.42
2023-03-08T17:16:34.540Z,0.90
2023-03-08T17:19:04.579Z,0.90
2023-03-08T17:21:32.594Z,0.63
2023-03-08T17:24:00.459Z,0.60
2023-03-08T17:26:30.393Z,0.63
2023-03-08T17:29:38.131Z,0.80
2023-03-08T17:32:05.882Z,0.47
2023-03-08T17:34:33.128Z,0.50
2023-03-08T17:37:00.363Z,0.80
2023-03-08T17:39:27.542Z,1.00
2023-03-08T17:41:54.553Z,1.00
2023-03-08T17:44:21.545Z,0.75
2023-03-08T17:46:48.519Z,0.70
2023-03-08T17:49:23.171Z,0.70
2023-03-08T17:51:52.324Z,0.60
2023-03-08T17:54:20.372Z,0.75
2023-03-08T17:56:47.378Z,0.50
2023-03-08T17:59:16.705Z,0.63
2023-03-08T18:01:44.550Z,0.70
2023-03-08T18:04:11.973Z,0.52
2023-03-08T18:06:43.534Z,0.60
2023-03-08T18:09:15.694Z,0.63
2023-03-08T18:11:43.051Z,0.70
2023-03-08T18:14:13.456Z,0.90
2023-03-08T18:16:40.886Z,0.82
2023-03-08T18:19:08.188Z,0.80
2023-03-08T18:21:38.821Z,0.90
2023-03-08T18:24:07.472Z,0.90
2023-03-08T18:26:34.480Z,1.10
2023-03-08T18:29:01.816Z,2.42
2023-03-08T18:31:31.059Z,2.53
2023-03-08T18:33:58.168Z,3.42
2023-03-08T18:36:25.372Z,2.08
2023-03-08T18:38:52.589Z,3.38
2023-03-08T18:41:28.021Z,2.78
2023-03-08T18:43:56.975Z,1.65
2023-03-08T18:46:29.730Z,2.38
2023-03-08T18:49:01.044Z,1.15
2023-03-08T18:51:30.115Z,0.70
2023-03-08T18:53:58.380Z,1.00
2023-03-08T18:57:18.242Z,1.08
2023-03-08T18:59:45.603Z,1.52
2023-03-08T19:02:22.060Z,1.40
2023-03-08T19:04:49.186Z,1.58
2023-03-08T19:07:16.287Z,1.48
2023-03-08T19:09:44.971Z,0.70
2023-03-08T19:12:13.115Z,0.80
2023-03-08T19:14:40.855Z,1.00
2023-03-08T19:17:07.980Z,1.60
2023-03-08T19:19:35.112Z,1.45
2023-03-08T19:22:06.047Z,1.00
2023-03-08T19:24:38.068Z,0.80
2023-03-08T19:27:07.653Z,1.90
2023-03-08T19:29:36.174Z,1.75
2023-03-08T19:32:07.819Z,1.00
2023-03-08T19:34:38.708Z,1.33
2023-03-08T19:37:07.466Z,1.42
2023-03-08T19:39:39.992Z,1.33
2023-03-08T19:42:17.832Z,1.13
2023-03-08T19:44:50.677Z,1.00
2023-03-08T19:47:20.275Z,1.00
2023-03-08T19:49:51.211Z,1.15
2023-03-08T19:52:21.526Z,0.95
2023-03-08T19:54:49.148Z,0.88
2023-03-08T19:57:18.894Z,1.30
2023-03-08T19:59:46.260Z,0.95
2023-03-08T20:02:40.023Z,1.15
2023-03-08T20:05:07.960Z,2.22
2023-03-08T20:07:35.602Z,0.70
2023-03-08T20:10:15.431Z,1.52
2023-03-08T20:12:46.656Z,1.27
2023-03-08T20:15:13.940Z,1.40
2023-03-08T20:17:41.292Z,1.65
2023-03-08T20:20:14.837Z,1.70
2023-03-08T20:22:42.419Z,1.45
2023-03-08T20:25:13.679Z,1.58
2023-03-08T20:27:42.413Z,1.10
2023-03-08T20:30:11.766Z,1.90
2023-03-08T20:32:39.077Z,1.02
2023-03-08T20:35:08.487Z,1.20
2023-03-08T20:37:37.942Z,1.50
2023-03-08T20:40:09.779Z,1.63
2023-03-08T20:42:43.702Z,2.25
2023-03-08T20:45:13.110Z,5.45
2023-03-08T20:47:40.876Z,1.38
2023-03-08T20:50:08.541Z,2.35
2023-03-08T20:52:43.206Z,1.95
2023-03-08T20:55:11.909Z,2.03
2023-03-08T20:57:38.998Z,1.40
2023-03-08T21:00:09.283Z,1.67
2023-03-08T21:02:40.175Z,1.35
2023-03-08T21:05:08.170Z,1.65
2023-03-08T21:07:35.402Z,1.35
2023-03-08T21:10:02.704Z,1.27
2023-03-08T21:12:29.726Z,0.80
2023-03-08T21:14:59.821Z,1.75
2023-03-08T21:17:26.957Z,1.17
2023-03-08T21:19:54.595Z,0.95
2023-03-08T21:22:22.095Z,0.85
2023-03-08T21:24:49.347Z,1.15
2023-03-08T21:27:17.504Z,1.42
2023-03-08T21:29:44.700Z,1.10
2023-03-08T21:32:12.506Z,0.85
2023-03-08T21:34:40.251Z,0.73
2023-03-08T21:37:07.713Z,0.75
2023-03-08T21:39:34.834Z,0.80
2023-03-08T21:42:01.909Z,1.08
2023-03-08T21:44:31.833Z,0.90
2023-03-08T21:46:59.232Z,0.50
2023-03-08T21:49:29.234Z,0.70
2023-03-08T21:51:58.425Z,0.68
2023-03-08T21:54:28.104Z,1.05
2023-03-08T21:56:55.304Z,0.77
2023-03-08T21:59:26.883Z,2.67
2023-03-08T22:01:58.427Z,1.63
2023-03-08T22:04:26.899Z,1.88
2023-03-08T22:07:16.293Z,2.38
2023-03-08T22:09:55.875Z,1.13
2023-03-08T22:12:33.481Z,1.88
2023-03-08T22:15:19.865Z,2.47
2023-03-08T22:18:02.611Z,2.40
2023-03-08T22:20:38.472Z,1.60
2023-03-08T22:23:05.620Z,2.15
2023-03-08T22:25:32.627Z,2.53
2023-03-08T22:27:59.608Z,2.05
2023-03-08T22:30:26.827Z,1.40
2023-03-08T22:32:54.826Z,1.25
2023-03-08T22:35:22.464Z,1.38
2023-03-08T22:37:50.067Z,1.30
2023-03-08T22:40:18.982Z,1.58
2023-03-08T22:42:47.208Z,1.60
2023-03-08T22:45:14.856Z,1.23
2023-03-08T22:47:42.127Z,1.20
2023-03-08T22:50:10.847Z,1.70
2023-03-08T22:52:39.052Z,2.08
2023-03-08T22:55:06.661Z,0.80
2023-03-08T22:57:37.623Z,0.73
2023-03-08T23:00:14.389Z,1.23
2023-03-08T23:02:42.983Z,1.20
2023-03-08T23:05:16.571Z,1.15
2023-03-08T23:07:43.663Z,1.30
2023-03-08T23:10:12.277Z,0.80
2023-03-08T23:12:40.042Z,1.00
2023-03-08T23:15:08.307Z,0.77
2023-03-08T23:17:36.160Z,1.13
2023-03-08T23:20:05.726Z,1.55
2023-03-08T23:22:33.024Z,1.02
2023-03-08T23:25:00.125Z,1.13
2023-03-08T23:27:27.264Z,1.15
2023-03-08T23:29:54.284Z,0.73
2023-03-08T23:32:21.488Z,1.13
2023-03-08T23:34:48.783Z,0.93
2023-03-08T23:37:15.760Z,0.82
2023-03-08T23:39:42.773Z,1.05
2023-03-08T23:42:09.880Z,1.17
2023-03-08T23:44:38.639Z,1.58
2023-03-08T23:47:06.174Z,2.10
2023-03-08T23:49:33.431Z,2.17
2023-03-08T23:52:00.544Z,1.92
2023-03-08T23:54:27.681Z,2.97
2023-03-08T23:56:54.735Z,2.30
2023-03-08T23:59:24.266Z,1.30
